createdAt,value
2023-02-23T00:02:06.135Z,2.83
2023-02-23T00:04:33.680Z,2.40
2023-02-23T00:07:00.464Z,2.50
2023-02-23T00:09:35.200Z,2.75
2023-02-23T00:12:08.134Z,2.92
2023-02-23T00:14:37.809Z,2.83
2023-02-23T00:17:05.377Z,3.13
2023-02-23T00:19:33.526Z,2.80
2023-02-23T00:22:01.133Z,2.80
2023-02-23T00:24:27.649Z,2.70
2023-02-23T00:26:54.235Z,2.88
2023-02-23T00:29:23.342Z,2.42
2023-02-23T00:31:51.595Z,2.70
2023-02-23T00:34:24.110Z,2.97
2023-02-23T00:36:55.128Z,3.30
2023-02-23T00:39:26.464Z,3.13
2023-02-23T00:41:53.968Z,2.80
2023-02-23T00:44:21.834Z,2.83
2023-02-23T00:46:52.244Z,3.40
2023-02-23T00:49:21.830Z,2.67
2023-02-23T00:51:48.390Z,3.20
2023-02-23T00:54:16.572Z,3.00
2023-02-23T00:56:43.064Z,2.65
2023-02-23T00:59:10.036Z,2.63
2023-02-23T01:01:37.813Z,3.08
2023-02-23T01:04:05.184Z,3.70
2023-02-23T01:06:32.602Z,2.92
2023-02-23T01:08:59.283Z,3.08
2023-02-23T01:11:28.474Z,2.80
2023-02-23T01:13:57.564Z,3.10
2023-02-23T01:16:28.780Z,3.22
2023-02-23T01:18:57.461Z,2.58
2023-02-23T01:21:27.756Z,3.50
2023-02-23T01:23:55.009Z,2.60
2023-02-23T01:26:24.265Z,3.65
2023-02-23T01:28:55.904Z,3.80
2023-02-23T01:31:24.182Z,3.97
2023-02-23T01:33:59.027Z,3.00
2023-02-23T01:36:26.520Z,3.22
2023-02-23T01:38:59.981Z,2.67
2023-02-23T01:41:29.787Z,3.40
2023-02-23T01:44:05.032Z,3.67
2023-02-23T01:46:39.251Z,3.65
2023-02-23T01:49:10.051Z,3.88
2023-02-23T01:51:43.232Z,3.60
2023-02-23T01:54:14.581Z,3.20
2023-02-23T01:56:43.812Z,3.25
2023-02-23T01:59:15.338Z,3.28
2023-02-23T02:01:42.732Z,3.08
2023-02-23T02:04:16.368Z,3.47
2023-02-23T02:06:47.177Z,3.50
2023-02-23T02:09:17.335Z,2.92
2023-02-23T02:11:46.438Z,2.95
2023-02-23T02:14:27.398Z,3.75
2023-02-23T02:17:20.924Z,2.60
2023-02-23T02:20:26.542Z,2.55
2023-02-23T02:23:17.756Z,3.10
2023-02-23T02:25:47.023Z,2.97
2023-02-23T02:28:32.705Z,3.13
2023-02-23T02:31:24.053Z,2.95
2023-02-23T02:34:15.937Z,3.20
2023-02-23T02:36:42.274Z,2.60
2023-02-23T02:39:22.927Z,3.25
2023-02-23T02:42:21.696Z,2.97
2023-02-23T02:45:00.235Z,3.40
2023-02-23T02:47:52.826Z,2.70
2023-02-23T02:50:46.325Z,3.10
2023-02-23T02:53:20.623Z,3.28
2023-02-23T02:55:48.968Z,3.20
2023-02-23T02:58:17.914Z,3.40
2023-02-23T03:01:06.971Z,3.63
2023-02-23T03:03:56.316Z,3.10
2023-02-23T03:06:49.053Z,3.78
2023-02-23T03:09:53.302Z,2.97
2023-02-23T03:13:07.090Z,2.90
2023-02-23T03:16:24.208Z,3.13
2023-02-23T03:19:29.627Z,2.95
2023-02-23T03:22:51.084Z,3.28
2023-02-23T03:25:50.731Z,2.72
2023-02-23T03:28:40.038Z,2.90
2023-02-23T03:31:53.023Z,3.65
2023-02-23T03:34:51.563Z,3.10
2023-02-23T03:37:40.983Z,3.20
2023-02-23T03:40:30.420Z,2.60
2023-02-23T03:43:26.001Z,2.78
2023-02-23T03:46:12.639Z,3.60
2023-02-23T03:49:08.820Z,3.38
2023-02-23T03:51:58.777Z,3.28
2023-02-23T03:54:57.671Z,3.53
2023-02-23T03:57:46.354Z,3.47
2023-02-23T04:00:39.424Z,3.70
2023-02-23T04:03:27.028Z,3.50
2023-02-23T04:06:14.354Z,3.40
2023-02-23T04:09:07.581Z,2.60
2023-02-23T04:12:01.542Z,3.22
2023-02-23T04:14:48.715Z,3.53
2023-02-23T04:17:16.547Z,3.72
2023-02-23T04:19:53.149Z,3.70
2023-02-23T04:22:20.347Z,3.65
2023-02-23T04:24:47.106Z,3.50
2023-02-23T04:27:14.461Z,3.17
2023-02-23T04:29:41.044Z,3.33
2023-02-23T04:32:12.421Z,3.42
2023-02-23T04:34:38.936Z,3.83
2023-02-23T04:37:05.463Z,3.60
2023-02-23T04:39:37.868Z,3.70
2023-02-23T04:42:04.667Z,4.65
2023-02-23T04:44:31.197Z,3.10
2023-02-23T04:46:58.200Z,3.80
2023-02-23T04:49:25.849Z,4.13
2023-02-23T04:51:52.284Z,3.65
2023-02-23T04:54:18.770Z,4.13
2023-02-23T04:56:45.212Z,3.70
2023-02-23T04:59:11.658Z,3.65
2023-02-23T05:01:38.142Z,3.97
2023-02-23T05:04:04.755Z,3.72
2023-02-23T05:06:33.384Z,3.47
2023-02-23T05:09:00.048Z,3.58
2023-02-23T05:11:27.799Z,3.95
2023-02-23T05:13:54.843Z,3.50
2023-02-23T05:16:21.693Z,3.67
2023-02-23T05:18:48.387Z,4.03
2023-02-23T05:21:14.976Z,3.40
2023-02-23T05:23:41.686Z,3.72
2023-02-23T05:26:10.875Z,3.40
2023-02-23T05:28:39.104Z,3.10
2023-02-23T05:31:05.992Z,3.65
2023-02-23T05:33:34.089Z,3.50
2023-02-23T05:36:04.134Z,3.80
2023-02-23T05:38:30.611Z,3.67
2023-02-23T05:40:57.169Z,3.90
2023-02-23T05:43:23.688Z,3.08
2023-02-23T05:45:50.142Z,3.15
2023-02-23T05:48:16.639Z,4.55
2023-02-23T05:50:43.135Z,4.38
2023-02-23T05:53:10.469Z,3.97
2023-02-23T05:55:37.557Z,4.00
2023-02-23T05:58:04.066Z,4.80
2023-02-23T06:00:30.649Z,4.20
2023-02-23T06:02:59.134Z,3.67
2023-02-23T06:05:25.560Z,4.28
2023-02-23T06:07:52.181Z,4.22
2023-02-23T06:10:18.762Z,3.40
2023-02-23T06:12:45.277Z,3.85
2023-02-23T06:15:11.750Z,3.30
2023-02-23T06:17:38.233Z,3.92
2023-02-23T06:20:07.088Z,4.30
2023-02-23T06:22:33.590Z,3.70
2023-02-23T06:25:00.043Z,3.80
2023-02-23T06:27:26.492Z,3.78
2023-02-23T06:29:53.424Z,4.30
2023-02-23T06:32:20.944Z,4.40
2023-02-23T06:34:47.403Z,4.72
2023-02-23T06:37:13.857Z,4.57
2023-02-23T06:39:40.298Z,4.93
2023-02-23T06:42:06.753Z,4.97
2023-02-23T06:44:35.758Z,4.40
2023-02-23T06:47:05.696Z,4.93
2023-02-23T06:49:35.297Z,4.90
2023-02-23T06:52:01.774Z,4.32
2023-02-23T06:54:29.319Z,4.70
2023-02-23T06:56:56.659Z,4.40
2023-02-23T06:59:24.327Z,4.50
2023-02-23T07:01:51.069Z,4.30
2023-02-23T07:04:17.636Z,4.55
2023-02-23T07:06:44.212Z,5.00
2023-02-23T07:09:10.697Z,4.80
2023-02-23T07:11:37.163Z,3.88
2023-02-23T07:14:03.655Z,4.28
2023-02-23T07:16:32.889Z,4.35
2023-02-23T07:18:59.381Z,5.28
2023-02-23T07:21:25.938Z,6.13
2023-02-23T07:23:52.414Z,6.68
2023-02-23T07:26:18.876Z,6.38
2023-02-23T07:28:45.468Z,6.07
2023-02-23T07:31:12.156Z,6.38
2023-02-23T07:33:38.658Z,6.07
2023-02-23T07:36:05.933Z,6.28
2023-02-23T07:38:32.425Z,6.70
2023-02-23T07:40:58.937Z,6.65
2023-02-23T07:43:26.453Z,6.68
2023-02-23T07:45:53.038Z,7.45
2023-02-23T07:48:20.133Z,7.13
2023-02-23T07:50:46.786Z,7.55
2023-02-23T07:53:13.261Z,6.88
2023-02-23T07:55:40.196Z,7.65
2023-02-23T07:58:07.440Z,7.00
2023-02-23T08:00:40.143Z,5.75
2023-02-23T08:03:07.201Z,5.78
2023-02-23T08:05:33.773Z,6.03
2023-02-23T08:08:00.255Z,6.32
2023-02-23T08:10:26.899Z,9.82
2023-02-23T08:12:53.402Z,11.50
2023-02-23T08:15:19.917Z,14.68
2023-02-23T08:17:46.349Z,10.05
2023-02-23T08:20:12.943Z,10.35
2023-02-23T08:22:48.908Z,10.07
2023-02-23T08:25:17.037Z,8.32
2023-02-23T08:27:43.518Z,8.77
2023-02-23T08:30:10.768Z,8.43
2023-02-23T08:32:37.336Z,8.30
2023-02-23T08:35:04.037Z,8.70
2023-02-23T08:37:30.703Z,9.13
2023-02-23T08:39:57.686Z,9.50
2023-02-23T08:42:30.386Z,7.88
2023-02-23T08:44:56.799Z,9.70
2023-02-23T08:47:24.355Z,9.75
2023-02-23T08:49:51.016Z,9.18
2023-02-23T08:52:17.746Z,9.90
2023-02-23T08:54:44.162Z,11.55
2023-02-23T08:57:12.581Z,11.60
2023-02-23T08:59:40.161Z,11.27
2023-02-23T09:02:08.447Z,10.15
2023-02-23T09:04:35.875Z,10.45
2023-02-23T09:07:03.096Z,9.43
2023-02-23T09:09:35.550Z,8.73
2023-02-23T09:12:02.141Z,9.48
2023-02-23T09:14:30.268Z,10.38
2023-02-23T09:16:56.727Z,12.27
2023-02-23T09:19:23.128Z,10.05
2023-02-23T09:21:49.686Z,13.68
2023-02-23T09:24:18.571Z,9.32
2023-02-23T09:26:46.006Z,11.82
2023-02-23T09:29:12.500Z,12.82
2023-02-23T09:31:39.427Z,12.90
2023-02-23T09:34:05.937Z,12.38
2023-02-23T09:36:32.384Z,12.35
2023-02-23T09:38:59.032Z,13.93
2023-02-23T09:41:25.362Z,13.73
2023-02-23T09:44:02.379Z,14.50
2023-02-23T09:46:53.427Z,15.32
2023-02-23T09:49:25.314Z,13.17
2023-02-23T09:51:57.679Z,13.20
2023-02-23T09:54:30.294Z,13.35
2023-02-23T09:57:01.014Z,13.60
2023-02-23T09:59:28.827Z,13.90
2023-02-23T10:02:20.131Z,13.77
2023-02-23T10:04:50.473Z,14.15
2023-02-23T10:07:39.975Z,15.18
2023-02-23T10:10:44.348Z,14.93
2023-02-23T10:13:34.112Z,16.55
2023-02-23T10:16:30.320Z,14.77
2023-02-23T10:19:04.111Z,14.93
2023-02-23T10:21:42.025Z,16.65
2023-02-23T10:24:29.500Z,16.70
2023-02-23T10:27:10.175Z,16.63
2023-02-23T10:29:51.632Z,17.85
2023-02-23T10:32:59.657Z,15.85
2023-02-23T10:35:29.207Z,15.82
2023-02-23T10:38:00.004Z,18.75
2023-02-23T10:40:29.110Z,17.93
2023-02-23T10:42:58.154Z,17.95
2023-02-23T10:45:27.573Z,18.88
2023-02-23T10:48:02.025Z,17.15
2023-02-23T10:50:30.461Z,16.92
2023-02-23T10:53:25.206Z,18.60
2023-02-23T10:56:13.842Z,17.55
2023-02-23T10:58:47.692Z,18.75
2023-02-23T11:01:36.217Z,17.83
2023-02-23T11:04:25.468Z,19.80
2023-02-23T11:07:29.399Z,16.90
2023-02-23T11:10:00.433Z,17.50
2023-02-23T11:12:37.695Z,18.92
2023-02-23T11:15:38.895Z,18.33
2023-02-23T11:18:20.279Z,17.80
2023-02-23T11:20:48.354Z,17.63
2023-02-23T11:23:24.371Z,18.00
2023-02-23T11:25:55.437Z,18.42
2023-02-23T11:28:30.262Z,17.98
2023-02-23T11:31:13.851Z,17.77
2023-02-23T11:33:40.979Z,18.65
2023-02-23T11:36:16.611Z,20.48
2023-02-23T11:38:45.312Z,19.45
2023-02-23T11:41:24.201Z,18.98
2023-02-23T11:43:53.151Z,18.58
2023-02-23T11:46:24.136Z,18.63
2023-02-23T11:48:57.227Z,20.58
2023-02-23T11:51:28.789Z,20.17
2023-02-23T11:53:57.182Z,19.73
2023-02-23T11:56:25.778Z,19.98
2023-02-23T11:59:04.435Z,19.67
2023-02-23T12:01:47.175Z,18.02
2023-02-23T12:04:29.538Z,18.00
2023-02-23T12:07:17.995Z,19.05
2023-02-23T12:09:47.330Z,18.35
2023-02-23T12:12:20.819Z,19.83
2023-02-23T12:15:00.649Z,17.23
2023-02-23T12:17:34.811Z,17.45
2023-02-23T12:20:11.099Z,16.13
2023-02-23T12:22:49.705Z,17.00
2023-02-23T12:25:33.333Z,18.38
2023-02-23T12:28:18.870Z,17.98
2023-02-23T12:30:54.955Z,17.27
2023-02-23T12:33:30.177Z,18.77
2023-02-23T12:36:09.020Z,18.15
2023-02-23T12:38:56.183Z,16.88
2023-02-23T12:41:35.476Z,17.80
2023-02-23T12:44:35.641Z,18.02
2023-02-23T12:47:09.088Z,17.40
2023-02-23T12:49:48.078Z,17.50
2023-02-23T12:52:34.745Z,17.80
2023-02-23T12:55:01.172Z,18.83
2023-02-23T12:57:27.846Z,17.83
2023-02-23T13:00:28.003Z,18.45
2023-02-23T13:03:32.922Z,19.58
2023-02-23T13:06:06.776Z,18.02
2023-02-23T13:08:48.165Z,17.80
2023-02-23T13:11:35.721Z,18.33
2023-02-23T13:14:37.284Z,17.33
2023-02-23T13:17:31.744Z,19.05
2023-02-23T13:20:04.076Z,16.33
2023-02-23T13:22:52.176Z,17.75
2023-02-23T13:25:34.741Z,18.50
2023-02-23T13:28:05.885Z,18.38
2023-02-23T13:30:32.634Z,18.20
2023-02-23T13:33:12.367Z,17.73
2023-02-23T13:35:39.189Z,17.92
2023-02-23T13:38:43.388Z,18.30
2023-02-23T13:41:41.826Z,19.38
2023-02-23T13:44:26.409Z,18.25
2023-02-23T13:47:04.997Z,17.55
2023-02-23T13:49:47.564Z,18.00
2023-02-23T13:52:33.379Z,17.55
2023-02-23T13:55:03.884Z,16.55
2023-02-23T13:57:32.618Z,15.70
2023-02-23T14:00:00.373Z,16.55
2023-02-23T14:02:38.735Z,16.15
2023-02-23T14:05:27.621Z,16.00
2023-02-23T14:08:02.361Z,14.90
2023-02-23T14:10:38.839Z,16.27
2023-02-23T14:13:14.186Z,17.92
2023-02-23T14:15:53.667Z,16.02
2023-02-23T14:18:26.072Z,16.08
2023-02-23T14:20:55.634Z,16.77
2023-02-23T14:23:22.013Z,16.50
2023-02-23T14:26:11.105Z,19.08
2023-02-23T14:28:43.321Z,17.95
2023-02-23T14:31:12.748Z,18.85
2023-02-23T14:33:41.989Z,17.67
2023-02-23T14:36:23.661Z,19.10
2023-02-23T14:38:53.290Z,17.38
2023-02-23T14:41:43.520Z,17.25
2023-02-23T14:44:28.903Z,19.13
2023-02-23T14:46:56.983Z,18.98
2023-02-23T14:49:28.427Z,17.23
2023-02-23T14:51:58.552Z,14.40
2023-02-23T14:54:31.852Z,15.73
2023-02-23T14:57:01.274Z,13.20
2023-02-23T14:59:35.854Z,14.25
2023-02-23T15:02:09.289Z,14.68
2023-02-23T15:04:38.615Z,15.43
2023-02-23T15:07:06.899Z,14.02
2023-02-23T15:09:40.239Z,13.88
2023-02-23T15:12:23.332Z,14.20
2023-02-23T15:14:50.320Z,14.15
2023-02-23T15:17:20.803Z,12.57
2023-02-23T15:20:14.852Z,13.57
2023-02-23T15:22:41.893Z,13.82
2023-02-23T15:25:24.241Z,12.98
2023-02-23T15:27:51.881Z,11.82
2023-02-23T15:30:31.095Z,12.25
2023-02-23T15:33:05.573Z,13.45
2023-02-23T15:35:45.561Z,12.35
2023-02-23T15:38:41.825Z,12.55
2023-02-23T15:41:09.376Z,12.07
2023-02-23T15:43:35.921Z,11.57
2023-02-23T15:46:05.733Z,12.52
2023-02-23T15:48:45.946Z,11.98
2023-02-23T15:51:36.159Z,12.25
2023-02-23T15:54:14.137Z,12.18
2023-02-23T15:56:41.200Z,11.73
2023-02-23T15:59:14.366Z,10.50
2023-02-23T16:01:53.949Z,11.10
2023-02-23T16:04:25.754Z,11.15
2023-02-23T16:06:53.882Z,10.52
2023-02-23T16:09:26.474Z,10.32
2023-02-23T16:12:14.339Z,9.95
2023-02-23T16:14:47.882Z,9.65
2023-02-23T16:17:52.042Z,9.13
2023-02-23T16:20:47.784Z,8.88
2023-02-23T16:23:34.397Z,8.30
2023-02-23T16:26:26.565Z,8.57
2023-02-23T16:31:50.550Z,7.45
2023-02-23T16:34:26.962Z,7.82
2023-02-23T16:36:59.208Z,7.85
2023-02-23T16:39:30.878Z,6.95
2023-02-23T16:44:34.308Z,7.70
2023-02-23T16:47:08.270Z,6.93
2023-02-23T16:49:34.794Z,7.40
2023-02-23T16:52:12.785Z,7.20
2023-02-23T16:54:39.176Z,7.35
2023-02-23T16:57:24.253Z,7.45
2023-02-23T16:59:52.813Z,6.78
2023-02-23T17:02:25.229Z,7.50
2023-02-23T17:04:52.830Z,7.60
2023-02-23T17:07:24.060Z,7.80
2023-02-23T17:09:51.700Z,6.95
2023-02-23T17:12:21.715Z,6.45
2023-02-23T17:14:49.585Z,6.80
2023-02-23T17:17:17.643Z,5.78
2023-02-23T17:19:45.543Z,5.95
2023-02-23T17:22:13.055Z,6.05
2023-02-23T17:24:41.495Z,5.93
2023-02-23T17:27:08.067Z,5.70
2023-02-23T17:29:34.766Z,5.47
2023-02-23T17:32:07.755Z,6.30
2023-02-23T17:34:40.881Z,6.70
2023-02-23T17:37:08.065Z,5.78
2023-02-23T17:39:37.509Z,5.32
2023-02-23T17:42:04.279Z,5.22
2023-02-23T17:44:30.952Z,6.18
2023-02-23T17:46:57.413Z,5.70
2023-02-23T17:49:25.463Z,5.50
2023-02-23T17:51:52.337Z,5.45
2023-02-23T17:54:18.801Z,5.38
2023-02-23T17:56:45.278Z,5.65
2023-02-23T17:59:11.711Z,4.97
2023-02-23T18:01:38.383Z,5.47
2023-02-23T18:04:05.037Z,5.43
2023-02-23T18:06:31.496Z,4.90
2023-02-23T18:08:58.202Z,5.43
2023-02-23T18:11:25.023Z,5.60
2023-02-23T18:13:52.818Z,5.75
2023-02-23T18:16:19.553Z,5.43
2023-02-23T18:18:49.054Z,4.95
2023-02-23T18:21:18.861Z,5.28
2023-02-23T18:23:46.116Z,5.68
2023-02-23T18:26:18.719Z,5.43
2023-02-23T18:28:46.356Z,5.90
2023-02-23T18:31:15.591Z,5.03
2023-02-23T18:33:42.621Z,5.45
2023-02-23T18:36:27.918Z,5.43
2023-02-23T18:38:56.825Z,5.82
2023-02-23T18:41:24.582Z,4.82
2023-02-23T18:43:51.842Z,5.38
2023-02-23T18:46:18.718Z,5.13
2023-02-23T18:48:48.587Z,4.90
2023-02-23T18:51:15.024Z,6.32
2023-02-23T18:53:42.143Z,6.15
2023-02-23T18:56:14.365Z,5.47
2023-02-23T18:58:42.135Z,6.20
2023-02-23T19:01:18.168Z,6.13
2023-02-23T19:03:45.800Z,6.50
2023-02-23T19:06:13.235Z,5.60
2023-02-23T19:08:43.288Z,5.95
2023-02-23T19:11:10.298Z,5.63
2023-02-23T19:13:38.119Z,6.65
2023-02-23T19:16:06.991Z,10.95
2023-02-23T19:18:37.540Z,9.95
2023-02-23T19:21:04.720Z,9.05
2023-02-23T19:23:31.784Z,9.05
2023-02-23T19:25:59.054Z,7.63
2023-02-23T19:28:30.619Z,8.75
2023-02-23T19:31:12.372Z,12.07
2023-02-23T19:36:09.553Z,11.65
2023-02-23T19:38:39.178Z,9.27
2023-02-23T19:41:07.504Z,9.43
2023-02-23T19:43:34.210Z,10.30
2023-02-23T19:46:06.760Z,9.27
2023-02-23T19:48:33.712Z,8.70
2023-02-23T19:51:00.427Z,8.48
2023-02-23T19:53:28.111Z,7.38
2023-02-23T19:56:03.219Z,7.30
2023-02-23T19:58:29.676Z,7.03
2023-02-23T20:01:02.852Z,7.07
2023-02-23T20:03:29.293Z,7.38
2023-02-23T20:05:56.540Z,6.30
2023-02-23T20:08:24.250Z,6.13
2023-02-23T20:10:51.764Z,7.70
2023-02-23T20:13:24.273Z,6.38
2023-02-23T20:15:50.774Z,6.90
2023-02-23T20:18:17.311Z,5.97
2023-02-23T20:20:52.854Z,5.93
2023-02-23T20:23:19.432Z,5.90
2023-02-23T20:25:45.957Z,6.38
2023-02-23T20:28:12.406Z,6.50
2023-02-23T20:30:39.961Z,6.78
2023-02-23T20:33:09.297Z,7.00
2023-02-23T20:35:35.808Z,6.43
2023-02-23T20:38:04.219Z,6.90
2023-02-23T20:40:36.023Z,7.55
2023-02-23T20:43:04.562Z,9.10
2023-02-23T20:45:31.240Z,7.95
2023-02-23T20:48:09.455Z,8.30
2023-02-23T20:50:37.034Z,7.68
2023-02-23T20:53:05.704Z,8.52
2023-02-23T20:55:32.829Z,9.93
2023-02-23T20:58:14.191Z,11.05
2023-02-23T21:00:40.697Z,8.70
2023-02-23T21:03:07.258Z,10.60
2023-02-23T21:05:39.194Z,10.60
2023-02-23T21:08:08.347Z,11.57
2023-02-23T21:10:39.795Z,11.30
2023-02-23T21:13:08.078Z,10.00
2023-02-23T21:15:35.107Z,10.45
2023-02-23T21:18:01.593Z,7.88
2023-02-23T21:20:28.632Z,7.65
2023-02-23T21:22:55.756Z,7.75
2023-02-23T21:25:25.398Z,7.25
2023-02-23T21:27:56.371Z,8.05
2023-02-23T21:30:24.649Z,6.97
2023-02-23T21:32:53.066Z,6.82
2023-02-23T21:35:20.412Z,7.90
2023-02-23T21:37:48.112Z,6.90
2023-02-23T21:40:20.439Z,7.47
2023-02-23T21:42:50.607Z,6.82
2023-02-23T21:45:23.040Z,5.65
2023-02-23T21:47:49.635Z,6.03
2023-02-23T21:50:21.347Z,6.20
2023-02-23T21:55:24.480Z,7.47
2023-02-23T21:58:02.739Z,7.55
2023-02-23T22:00:30.791Z,7.13
2023-02-23T22:02:57.470Z,5.63
2023-02-23T22:05:23.901Z,5.32
2023-02-23T22:07:52.606Z,4.78
2023-02-23T22:10:20.764Z,5.07
2023-02-23T22:12:50.078Z,5.40
2023-02-23T22:15:17.549Z,5.88
2023-02-23T22:17:44.174Z,6.50
2023-02-23T22:20:11.836Z,6.70
2023-02-23T22:22:38.330Z,7.05
2023-02-23T22:25:07.685Z,8.05
2023-02-23T22:27:34.272Z,8.50
2023-02-23T22:30:01.515Z,8.80
2023-02-23T22:32:32.668Z,8.23
2023-02-23T22:35:00.290Z,7.63
2023-02-23T22:37:40.992Z,8.77
2023-02-23T22:40:16.687Z,8.07
2023-02-23T22:42:48.432Z,9.15
2023-02-23T22:45:17.652Z,6.68
2023-02-23T22:47:51.195Z,6.10
2023-02-23T22:50:19.250Z,6.05
2023-02-23T22:52:46.295Z,5.85
2023-02-23T22:55:13.146Z,5.75
2023-02-23T22:57:40.297Z,5.68
2023-02-23T23:00:15.495Z,5.35
2023-02-23T23:02:42.432Z,6.22
2023-02-23T23:05:17.833Z,5.80
2023-02-23T23:07:46.988Z,5.53
2023-02-23T23:10:15.640Z,6.47
2023-02-23T23:12:42.200Z,5.78
2023-02-23T23:15:17.415Z,6.40
2023-02-23T23:17:50.591Z,6.15
2023-02-23T23:20:25.639Z,5.85
2023-02-23T23:22:53.189Z,6.15
2023-02-23T23:25:23.303Z,9.45
2023-02-23T23:27:52.498Z,8.43
2023-02-23T23:30:29.370Z,7.10
2023-02-23T23:32:57.622Z,6.55
2023-02-23T23:35:26.219Z,6.65
2023-02-23T23:37:52.825Z,8.40
2023-02-23T23:40:24.196Z,7.82
2023-02-23T23:42:52.586Z,6.40
2023-02-23T23:45:24.229Z,5.72
2023-02-23T23:47:50.921Z,6.38
2023-02-23T23:50:17.801Z,7.32
2023-02-23T23:52:45.106Z,9.07
2023-02-23T23:55:14.671Z,8.98
2023-02-23T23:57:42.342Z,9.30
